Flight Track Log - Related Links

Times and Time Zones

All times are in EST time to prevent confusion due to time zone crossing. See the N589H flight status page for this flight to view local times or setup timezone preferences in your user account.

Time Position Orientation Groundspeed Altitude Reporting Facility
EST Latitude Longitude Course Direction KTS MPH feet Rate Location/Type
Sun 03:47:16 PM 43.6833 -79.6333 360° North 10 12 500  Level Toronto Center
Sun 03:48:16 PM 43.6833 -79.6333 216° Southwest 20 23 500 211 Level Toronto Center
Sun 03:51:04 PM 43.6667 -79.6500 216° Southwest 130 150 1,300 737 Climbing Toronto Center
Sun 03:52:04 PM 43.6000 -79.6500 180° South 190 219 3,300 2,200 Climbing Toronto Center
Sun 03:53:04 PM 43.5500 -79.6500 180° South 190 219 5,700 1,800 Climbing Toronto Center
Sun 03:54:04 PM 43.5000 -79.6833 206° Southwest 190 219 6,900 600 Climbing Toronto Center
Sun 03:55:04 PM 43.4333 -79.6833 180° South 230 265 6,900 250 Level Toronto Center
Sun 03:56:04 PM 43.3667 -79.6833 180° South 250 288 7,400 700 Climbing Toronto Center
Sun 03:57:04 PM 43.2833 -79.6833 180° South 260 299 8,300 950 Climbing Toronto Center
Sun 03:58:04 PM 43.2167 -79.7000 190° South 260 299 9,300 1,000 Climbing Toronto Center
Sun 03:59:04 PM 43.1500 -79.7000 180° South 250 288 10,300 1,050 Climbing Toronto Center
Sun 04:00:04 PM 43.0833 -79.7167 190° South 250 288 11,400 1,050 Climbing Toronto Center
Sun 04:01:04 PM 43.0167 -79.7167 180° South 250 288 12,400 1,050 Climbing Toronto Center
Sun 04:02:04 PM 42.9500 -79.7500 200° South 240 276 13,500 1,050 Climbing Toronto Center
Sun 04:03:04 PM 42.8833 -79.7500 180° South 240 276 14,500 971 Climbing Toronto Center
Sun 04:03:49 PM 42.8467 -79.7822 213° Southwest 237 273 15,200 1,009 Climbing Cleveland Center
Sun 04:04:51 PM 42.7808 -79.7933 187° South 238 274 16,300 1,065 Climbing Cleveland Center
Sun 04:05:53 PM 42.7153 -79.8039 187° South 239 275 17,400 968 Climbing Cleveland Center
Sun 04:06:55 PM 42.6503 -79.8158 188° South 236 272 18,300 1,016 Climbing Cleveland Center
Sun 04:07:57 PM 42.5714 -79.8289 187° South 241 277 19,500 1,122 Climbing Cleveland Center
Sun 04:08:58 PM 42.5053 -79.8408 188° South 240 276 20,600 1,024 Climbing Cleveland Center
Sun 04:10:00 PM 42.4361 -79.8508 186° South 240 276 21,600 1,016 Climbing Cleveland Center
Sun 04:11:02 PM 42.3697 -79.8622 187° South 241 277 22,700 1,016 Climbing Cleveland Center
Sun 04:12:04 PM 42.3039 -79.8733 187° South 239 275 23,700 1,016 Climbing Cleveland Center
Sun 04:13:06 PM 42.2378 -79.8850 187° South 241 277 24,800 1,016 Climbing Cleveland Center
Sun 04:14:08 PM 42.1728 -79.8953 187° South 238 274 25,800 1,073 Climbing Cleveland Center
Sun 04:15:09 PM 42.0967 -79.9081 187° South 232 267 27,000 1,122 Climbing Cleveland Center
Sun 04:16:11 PM 42.0336 -79.9186 187° South 231 266 28,100 1,016 Climbing Cleveland Center
Sun 04:17:13 PM 41.9708 -79.9292 187° South 231 266 29,100 1,016 Climbing Cleveland Center
Sun 04:18:15 PM 41.9039 -79.9436 189° South 235 270 30,200 1,065 Climbing Cleveland Center
Sun 04:19:17 PM 41.8392 -79.9533 186° South 232 267 31,300 871 Climbing Cleveland Center
Sun 04:20:19 PM 41.7767 -79.9636 187° South 225 259 32,000 339 Climbing Cleveland Center
Sun 04:21:21 PM 41.7097 -79.9744 187° South 239 275 32,000  Level Cleveland Center
Sun 04:22:22 PM 41.6294 -79.9861 186° South 259 298 32,000  Level Cleveland Center
Sun 04:23:24 PM 41.5500 -80.0006 188° South 268 308 32,000  Level Cleveland Center
Sun 04:24:26 PM 41.4736 -80.0114 186° South 275 316 32,000  Level Cleveland Center
Sun 04:25:28 PM 41.3969 -80.0233 187° South 277 319 32,000  Level Cleveland Center
Sun 04:26:30 PM 41.3200 -80.0369 188° South 279 321 32,000  Level Cleveland Center
Sun 04:27:32 PM 41.2425 -80.0483 186° South 280 322 32,000  Level Cleveland Center
Sun 04:28:34 PM 41.1644 -80.0622 188° South 282 325 32,000  Level Cleveland Center
Sun 04:29:35 PM 41.0853 -80.0750 187° South 287 330 32,000  Level Cleveland Center
Sun 04:30:37 PM 40.9917 -80.0903 187° South 284 327 32,000  Level Cleveland Center
Sun 04:31:39 PM 40.9136 -80.1022 187° South 284 327 32,000  Level Cleveland Center
Sun 04:32:41 PM 40.8289 -80.1147 186° South 286 329 32,000  Level Cleveland Center
Sun 04:33:43 PM 40.7506 -80.1269 187° South 288 331 32,000  Level Cleveland Center
Sun 04:34:45 PM 40.6714 -80.1403 187° South 289 333 32,000  Level Cleveland Center
Sun 04:35:47 PM 40.5919 -80.1525 187° South 290 334 32,000  Level Cleveland Center
Sun 04:36:49 PM 40.5128 -80.1656 187° South 290 334 32,000  Level Cleveland Center
Sun 04:37:51 PM 40.4186 -80.1814 187° South 285 328 32,000  Level Cleveland Center
Sun 04:38:52 PM 40.3369 -80.1939 187° South 293 337 32,000  Level Cleveland Center
Sun 04:39:54 PM 40.2494 -80.2078 187° South 296 341 32,000  Level Cleveland Center
Sun 04:40:56 PM 40.1681 -80.2208 187° South 295 339 32,000  Level Cleveland Center
Sun 04:41:58 PM 40.0867 -80.2331 187° South 295 339 32,000  Level Cleveland Center
Sun 04:43:00 PM 40.0042 -80.2458 187° South 298 343 32,000  Level Cleveland Center
Sun 04:44:02 PM 39.9219 -80.2589 187° South 298 343 32,000  Level Cleveland Center
Sun 04:45:04 PM 39.8419 -80.2711 187° South 292 336 32,000  Level Cleveland Center
Sun 04:46:06 PM 39.7458 -80.2861 187° South 290 334 32,000  Level Cleveland Center
Sun 04:47:07 PM 39.6686 -80.2986 187° South 282 325 32,000  Level Cleveland Center
Sun 04:48:09 PM 39.5925 -80.3108 187° South 275 316 32,000  Level Cleveland Center
Sun 04:49:14 PM 39.5144 -80.3236 187° South 262 302 32,000  Level Washington Center
Sun 04:49:35 PM 39.4872 -80.3272 186° South 257 296 32,000  Level Washington Center
Sun 04:50:36 PM 39.4117 -80.3383 186° South 263 303 32,000  Level Washington Center
Sun 04:51:37 PM 39.3364 -80.3494 187° South 268 308 32,000  Level Washington Center
Sun 04:52:35 PM 39.2586 -80.3631 188° South 274 315 32,000  Level Washington Center
Sun 04:53:35 PM 39.1811 -80.3742 186° South 279 321 32,000  Level Washington Center
Sun 04:54:36 PM 39.1014 -80.3850 186° South 279 321 32,000  Level Washington Center
Sun 04:55:37 PM 39.0194 -80.3983 187° South 284 327 32,000  Level Washington Center
Sun 04:56:35 PM 38.9378 -80.4089 186° South 295 339 32,000  Level Washington Center
Sun 04:57:36 PM 38.8558 -80.4222 187° South 295 339 32,000  Level Washington Center
Sun 04:58:37 PM 38.7761 -80.4356 187° South 295 339 32,000  Level Washington Center
Sun 04:59:37 PM 38.6856 -80.4564 190° South 307 353 32,000  Level Washington Center
Sun 05:00:35 PM 38.6122 -80.4647 185° South 313 360 32,000  Level Washington Center
Sun 05:01:36 PM 38.5303 -80.4806 189° South 313 360 32,000  Level Washington Center
Sun 05:02:35 PM 38.4444 -80.4883 184° South 313 360 32,000  Level Washington Center
Sun 05:03:36 PM 38.3628 -80.5014 187° South 313 360 32,000  Level Washington Center
Sun 05:04:35 PM 38.2703 -80.5164 187° South 313 360 32,000  Level Washington Center
Sun 05:05:35 PM 38.1864 -80.5294 187° South 313 360 32,000  Level Washington Center
Sun 05:06:35 PM 38.1044 -80.5397 186° South 313 360 32,000  Level Washington Center
Sun 05:07:37 PM 38.0292 -80.5506 186° South 313 360 32,000  Level Washington Center
Sun 05:08:35 PM 37.9431 -80.5633 187° South 313 360 32,000  Level Washington Center
Sun 05:09:35 PM 37.8611 -80.5764 187° South 313 360 32,000  Level Washington Center
Sun 05:10:36 PM 37.7772 -80.5892 187° South 313 360 32,000 -422 Level Washington Center
Sun 05:12:54 PM 37.5744 -80.6169 186° South 319 367 30,600 -758 Descending Atlanta Center
Sun 05:13:54 PM 37.4747 -80.6292 186° South 332 382 29,500 -950 Descending Atlanta Center
Sun 05:14:54 PM 37.3811 -80.6436 187° South 332 382 28,700 -850 Descending Atlanta Center
Sun 05:15:54 PM 37.2878 -80.6583 187° South 332 382 27,800 -900 Descending Atlanta Center
Sun 05:16:54 PM 37.1986 -80.6700 186° South 332 382 26,900 -900 Descending Atlanta Center
Sun 05:17:54 PM 37.1133 -80.6814 186° South 332 382 26,000 -900 Descending Atlanta Center
Sun 05:18:54 PM 37.0200 -80.6931 186° South 332 382 25,100 -900 Descending Atlanta Center
Sun 05:19:54 PM 36.9347 -80.7044 186° South 326 375 24,200 -1,050 Descending Atlanta Center
Sun 05:20:54 PM 36.8414 -80.7189 187° South 315 362 23,000 -1,250 Descending Atlanta Center
Sun 05:21:54 PM 36.7581 -80.7300 186° South 310 357 21,700 -1,250 Descending Atlanta Center
Sun 05:22:54 PM 36.6856 -80.7433 188° South 305 351 20,500 -1,250 Descending Atlanta Center
Sun 05:23:54 PM 36.6025 -80.7547 186° South 311 358 19,200 -1,300 Descending Atlanta Center
Sun 05:24:54 PM 36.5172 -80.7658 186° South 311 358 17,900 -1,300 Descending Atlanta Center
Sun 05:25:54 PM 36.4383 -80.7769 186° South 305 351 16,600 -1,300 Descending Atlanta Center
Sun 05:26:54 PM 36.3614 -80.7903 188° South 294 338 15,300 -1,300 Descending Atlanta Center
Sun 05:27:54 PM 36.2847 -80.8011 186° South 289 333 14,000 -1,300 Descending Atlanta Center
Sun 05:28:54 PM 36.2078 -80.8119 186° South 284 327 12,700 -1,350 Descending Atlanta Center
Sun 05:29:54 PM 36.1372 -80.8225 187° South 278 320 11,300 -1,300 Descending Atlanta Center
Sun 05:30:54 PM 36.0622 -80.8356 188° South 278 320 10,100 -650 Descending Atlanta Center
Sun 05:31:54 PM 35.9833 -80.8492 188° South 278 320 10,000 -100 Descending Atlanta Center
Sun 05:31:54 PM 35.9833 -80.8492 188° South 263 303 10,000  Level Atlanta Center
Sun 05:32:54 PM 35.9128 -80.8594 187° South 278 320 10,000  Level Atlanta Center
Sun 05:33:01 PM 35.9044 -80.8625 197° South 262 302 10,000  Level Atlanta Center
Sun 05:33:54 PM 35.8381 -80.8703 185° South 278 320 10,000  Level Atlanta Center
Sun 05:34:02 PM 35.8297 -80.8731 195° South 262 302 10,000 -300 Level Atlanta Center
Sun 05:34:54 PM 35.7653 -80.8833 187° South 273 314 9,700 -545 Descending Atlanta Center
Sun 05:35:08 PM 35.7467 -80.8889 194° South 268 308 9,400 -900 Descending Atlanta Center
Sun 05:35:54 PM 35.6928 -80.9014 191° South 273 314 8,800 -885 Descending Atlanta Center
Sun 05:36:09 PM 35.6761 -80.9072 196° South 260 299 8,500 -900 Descending Atlanta Center
Sun 05:36:54 PM 35.6306 -80.9192 192° South 262 302 7,900 -982 Descending Atlanta Center
Sun 05:37:04 PM 35.6203 -80.9219 192° South 225 259 7,600 -1,000 Descending Atlanta Center
Sun 05:37:54 PM 35.5664 -80.9369 193° South 249 287 6,900 -889 Descending Atlanta Center
Sun 05:37:58 PM 35.5603 -80.9397 200° South 237 273 6,800 -1,015 Descending Atlanta Center
Sun 05:38:59 PM 35.4917 -80.9550 190° South 247 284 5,800 -1,241 Descending Atlanta Center
Sun 05:39:54 PM 35.4292 -80.9547 180° South 249 287 4,400 -1,574 Descending Atlanta Center
Sun 05:40:00 PM 35.4228 -80.9550 182° South 247 284 4,200 -400 Descending Atlanta Center
Sun 05:40:54 PM 35.3706 -80.9519 177° South 236 272 4,000 -269 Descending Atlanta Center
Sun 05:41:07 PM 35.3539 -80.9525 182° South 209 241 3,900 -811 Descending Atlanta Center
Sun 05:42:08 PM 35.3058 -80.9467 174° South 175 201 3,000 -1,140 Descending Atlanta Center
Sun 05:43:08 PM 35.2642 -80.9431 176° South 139 160 1,600 -1,400 Descending Atlanta Center
Sun 05:45:00 PM 35.2137 -80.9491 180° South  Level Estimated
Sun 05:52:00 PM 35.2137 -80.9491 180° South  Level Estimated

Login

Don't have an account? Register now (free) for customized features, flight alerts, and more!